Terminal Aerodrome Forecast
Issued by NWS

Home | Current Version | Previous Version | Text Only | Print | Product List | Glossary On
Versions: 1 2 3 4 5 6 7 8 9 10 11 12 13 14 15 16 17
000
FTUS44 KCRP 220500
TAFLRD
TAF
KLRD 220531Z 2206/2306 15004KT P6SM OVC008
     FM220900 VRB03KT 4SM BR OVC004
      TEMPO 2210/2214 2SM BR OVC002
     FM221500 20006KT 5SM BR SCT008
     FM221600 21009KT P6SM SKC
     FM222300 18006KT P6SM BKN250
      AMD NOT SKED=

USA.gov is the U.S. government's official web portal to all federal, state and local government web resources and services.